sensor_id;sensor_type;location;lat;lon;timestamp;temperature;humidity
21635;DHT22;10979;48.306;9.830;2022-11-21T00:00:19;3.90;99.90
21635;DHT22;10979;48.306;9.830;2022-11-21T00:02:44;3.90;99.90
21635;DHT22;10979;48.306;9.830;2022-11-21T00:05:10;3.90;99.90
21635;DHT22;10979;48.306;9.830;2022-11-21T00:07:36;3.80;99.90
21635;DHT22;10979;48.306;9.830;2022-11-21T00:10:02;3.90;99.90
21635;DHT22;10979;48.306;9.830;2022-11-21T00:12:27;3.90;99.90
21635;DHT22;10979;48.306;9.830;2022-11-21T00:14:53;3.90;99.90
21635;DHT22;10979;48.306;9.830;2022-11-21T00:17:19;3.90;99.90
21635;DHT22;10979;48.306;9.830;2022-11-21T00:19:44;3.80;99.90
21635;DHT22;10979;48.306;9.830;2022-11-21T00:22:10;3.80;99.90
21635;DHT22;10979;48.306;9.830;2022-11-21T00:24:35;3.80;99.90
21635;DHT22;10979;48.306;9.830;2022-11-21T00:27:01;3.80;99.90
21635;DHT22;10979;48.306;9.830;2022-11-21T00:29:27;3.80;99.90
21635;DHT22;10979;48.306;9.830;2022-11-21T00:31:52;3.70;99.90
21635;DHT22;10979;48.306;9.830;2022-11-21T00:34:18;3.70;99.90
21635;DHT22;10979;48.306;9.830;2022-11-21T00:36:43;3.70;99.90
21635;DHT22;10979;48.306;9.830;2022-11-21T00:39:09;3.70;99.90
21635;DHT22;10979;48.306;9.830;2022-11-21T00:41:35;3.60;99.90
21635;DHT22;10979;48.306;9.830;2022-11-21T00:44:00;3.70;99.90
21635;DHT22;10979;48.306;9.830;2022-11-21T00:46:26;3.70;99.90
21635;DHT22;10979;48.306;9.830;2022-11-21T00:48:51;3.80;99.90
21635;DHT22;10979;48.306;9.830;2022-11-21T00:51:17;3.70;99.90
21635;DHT22;10979;48.306;9.830;2022-11-21T00:53:42;3.80;99.90
21635;DHT22;10979;48.306;9.830;2022-11-21T00:56:08;3.70;99.90
21635;DHT22;10979;48.306;9.830;2022-11-21T00:58:33;3.60;99.90
21635;DHT22;10979;48.306;9.830;2022-11-21T01:01:08;3.50;99.90
21635;DHT22;10979;48.306;9.830;2022-11-21T01:03:34;3.30;99.90
21635;DHT22;10979;48.306;9.830;2022-11-21T01:06:02;3.30;99.90
21635;DHT22;10979;48.306;9.830;2022-11-21T01:08:28;3.30;99.90
21635;DHT22;10979;48.306;9.830;2022-11-21T01:10:53;3.30;99.90
21635;DHT22;10979;48.306;9.830;2022-11-21T01:13:19;3.10;99.90
21635;DHT22;10979;48.306;9.830;2022-11-21T01:15:44;3.00;99.90
21635;DHT22;10979;48.306;9.830;2022-11-21T01:18:10;3.00;99.90
21635;DHT22;10979;48.306;9.830;2022-11-21T01:20:38;3.10;99.90
21635;DHT22;10979;48.306;9.830;2022-11-21T01:23:04;3.10;99.90
21635;DHT22;10979;48.306;9.830;2022-11-21T01:25:33;3.10;99.90
21635;DHT22;10979;48.306;9.830;2022-11-21T01:27:58;3.20;99.90
21635;DHT22;10979;48.306;9.830;2022-11-21T01:30:24;3.10;99.90
21635;DHT22;10979;48.306;9.830;2022-11-21T01:32:49;3.00;99.90
21635;DHT22;10979;48.306;9.830;2022-11-21T01:35:16;3.00;99.90
21635;DHT22;10979;48.306;9.830;2022-11-21T01:37:41;3.10;99.90
21635;DHT22;10979;48.306;9.830;2022-11-21T01:40:07;3.00;99.90
21635;DHT22;10979;48.306;9.830;2022-11-21T01:45:50;2.90;99.90
21635;DHT22;10979;48.306;9.830;2022-11-21T01:48:18;3.00;99.90
21635;DHT22;10979;48.306;9.830;2022-11-21T01:50:45;2.90;99.90
21635;DHT22;10979;48.306;9.830;2022-11-21T01:53:10;2.90;99.90
21635;DHT22;10979;48.306;9.830;2022-11-21T01:55:36;3.00;99.90
21635;DHT22;10979;48.306;9.830;2022-11-21T01:58:02;3.00;99.90
21635;DHT22;10979;48.306;9.830;2022-11-21T02:00:31;3.20;99.90
21635;DHT22;10979;48.306;9.830;2022-11-21T02:03:03;3.30;99.90
21635;DHT22;10979;48.306;9.830;2022-11-21T02:05:32;3.30;99.90
21635;DHT22;10979;48.306;9.830;2022-11-21T02:08:04;3.40;99.90
21635;DHT22;10979;48.306;9.830;2022-11-21T02:10:33;3.50;99.90
21635;DHT22;10979;48.306;9.830;2022-11-21T02:12:59;3.60;99.90
21635;DHT22;10979;48.306;9.830;2022-11-21T02:15:29;3.60;99.90
21635;DHT22;10979;48.306;9.830;2022-11-21T02:17:55;3.60;99.90
21635;DHT22;10979;48.306;9.830;2022-11-21T02:20:23;3.60;99.90
21635;DHT22;10979;48.306;9.830;2022-11-21T02:23:00;3.70;99.90
21635;DHT22;10979;48.306;9.830;2022-11-21T02:25:29;3.70;99.90
21635;DHT22;10979;48.306;9.830;2022-11-21T02:27:59;3.70;99.90
21635;DHT22;10979;48.306;9.830;2022-11-21T02:30:27;3.70;99.90
21635;DHT22;10979;48.306;9.830;2022-11-21T02:32:53;3.70;99.90
21635;DHT22;10979;48.306;9.830;2022-11-21T02:35:19;3.70;99.90
21635;DHT22;10979;48.306;9.830;2022-11-21T02:37:47;3.70;99.90
21635;DHT22;10979;48.306;9.830;2022-11-21T02:40:18;3.70;99.90
21635;DHT22;10979;48.306;9.830;2022-11-21T02:42:55;3.80;99.90
21635;DHT22;10979;48.306;9.830;2022-11-21T02:45:30;3.80;99.90
21635;DHT22;10979;48.306;9.830;2022-11-21T02:47:57;4.00;99.90
21635;DHT22;10979;48.306;9.830;2022-11-21T02:50:28;4.00;99.90
21635;DHT22;10979;48.306;9.830;2022-11-21T02:52:54;3.90;99.90
21635;DHT22;10979;48.306;9.830;2022-11-21T02:55:20;3.90;99.90
21635;DHT22;10979;48.306;9.830;2022-11-21T02:57:46;4.00;99.90
21635;DHT22;10979;48.306;9.830;2022-11-21T03:00:12;4.00;99.90
21635;DHT22;10979;48.306;9.830;2022-11-21T03:02:37;4.00;99.90
21635;DHT22;10979;48.306;9.830;2022-11-21T03:05:05;4.00;99.90
21635;DHT22;10979;48.306;9.830;2022-11-21T03:07:31;3.90;99.90
21635;DHT22;10979;48.306;9.830;2022-11-21T03:09:56;3.90;99.90
21635;DHT22;10979;48.306;9.830;2022-11-21T03:12:22;3.90;99.90
21635;DHT22;10979;48.306;9.830;2022-11-21T03:14:48;4.00;99.90
21635;DHT22;10979;48.306;9.830;2022-11-21T03:17:13;3.90;99.90
21635;DHT22;10979;48.306;9.830;2022-11-21T03:19:39;4.00;99.90
21635;DHT22;10979;48.306;9.830;2022-11-21T03:22:04;4.00;99.90
21635;DHT22;10979;48.306;9.830;2022-11-21T03:24:30;4.00;99.90
21635;DHT22;10979;48.306;9.830;2022-11-21T03:26:55;4.00;99.90
21635;DHT22;10979;48.306;9.830;2022-11-21T03:29:21;4.00;99.90
21635;DHT22;10979;48.306;9.830;2022-11-21T03:31:46;4.00;99.90
21635;DHT22;10979;48.306;9.830;2022-11-21T03:34:12;4.00;99.90
21635;DHT22;10979;48.306;9.830;2022-11-21T03:36:38;4.00;99.90
21635;DHT22;10979;48.306;9.830;2022-11-21T03:39:03;4.00;99.90
21635;DHT22;10979;48.306;9.830;2022-11-21T03:41:29;4.00;99.90
21635;DHT22;10979;48.306;9.830;2022-11-21T03:43:59;3.90;99.90
21635;DHT22;10979;48.306;9.830;2022-11-21T03:46:26;3.90;99.90
21635;DHT22;10979;48.306;9.830;2022-11-21T03:48:52;3.90;99.90
21635;DHT22;10979;48.306;9.830;2022-11-21T03:51:18;3.90;99.90
21635;DHT22;10979;48.306;9.830;2022-11-21T03:53:44;3.90;99.90
21635;DHT22;10979;48.306;9.830;2022-11-21T03:56:10;3.80;99.90
21635;DHT22;10979;48.306;9.830;2022-11-21T03:58:36;3.90;99.90
21635;DHT22;10979;48.306;9.830;2022-11-21T04:01:02;3.90;99.90
21635;DHT22;10979;48.306;9.830;2022-11-21T04:03:27;3.80;99.90
21635;DHT22;10979;48.306;9.830;2022-11-21T04:05:53;3.80;99.90
21635;DHT22;10979;48.306;9.830;2022-11-21T04:08:18;3.80;99.90
21635;DHT22;10979;48.306;9.830;2022-11-21T04:10:46;3.80;99.90
21635;DHT22;10979;48.306;9.830;2022-11-21T04:13:12;3.70;99.90
21635;DHT22;10979;48.306;9.830;2022-11-21T04:15:39;3.80;99.90
21635;DHT22;10979;48.306;9.830;2022-11-21T04:18:05;3.80;99.90
21635;DHT22;10979;48.306;9.830;2022-11-21T04:20:30;3.70;99.90
21635;DHT22;10979;48.306;9.830;2022-11-21T04:22:56;3.70;99.90
21635;DHT22;10979;48.306;9.830;2022-11-21T04:25:21;3.70;99.90
21635;DHT22;10979;48.306;9.830;2022-11-21T04:27:47;3.70;99.90
21635;DHT22;10979;48.306;9.830;2022-11-21T04:30:13;3.70;99.90
21635;DHT22;10979;48.306;9.830;2022-11-21T04:32:38;3.70;99.90
21635;DHT22;10979;48.306;9.830;2022-11-21T04:35:04;3.70;99.90
21635;DHT22;10979;48.306;9.830;2022-11-21T04:37:30;3.70;99.90
21635;DHT22;10979;48.306;9.830;2022-11-21T04:39:55;3.70;99.90
21635;DHT22;10979;48.306;9.830;2022-11-21T04:42:21;3.70;99.90
21635;DHT22;10979;48.306;9.830;2022-11-21T04:44:47;3.70;99.90
21635;DHT22;10979;48.306;9.830;2022-11-21T04:47:12;3.60;99.90
21635;DHT22;10979;48.306;9.830;2022-11-21T04:49:38;3.60;99.90
21635;DHT22;10979;48.306;9.830;2022-11-21T04:52:03;3.60;99.90
21635;DHT22;10979;48.306;9.830;2022-11-21T04:54:29;3.60;99.90
21635;DHT22;10979;48.306;9.830;2022-11-21T04:56:54;3.60;99.90
21635;DHT22;10979;48.306;9.830;2022-11-21T04:59:20;3.60;99.90
21635;DHT22;10979;48.306;9.830;2022-11-21T05:01:46;3.50;99.90
21635;DHT22;10979;48.306;9.830;2022-11-21T05:04:11;3.40;99.90
21635;DHT22;10979;48.306;9.830;2022-11-21T05:06:37;3.30;99.90
21635;DHT22;10979;48.306;9.830;2022-11-21T05:09:02;3.20;99.90
21635;DHT22;10979;48.306;9.830;2022-11-21T05:11:28;3.20;99.90
21635;DHT22;10979;48.306;9.830;2022-11-21T05:14:12;3.20;99.90
21635;DHT22;10979;48.306;9.830;2022-11-21T05:16:38;3.10;99.90
21635;DHT22;10979;48.306;9.830;2022-11-21T05:19:03;3.00;99.90
21635;DHT22;10979;48.306;9.830;2022-11-21T05:21:29;2.90;99.90
21635;DHT22;10979;48.306;9.830;2022-11-21T05:23:54;2.70;99.90
21635;DHT22;10979;48.306;9.830;2022-11-21T05:26:20;2.70;99.90
21635;DHT22;10979;48.306;9.830;2022-11-21T05:28:46;2.50;99.90
21635;DHT22;10979;48.306;9.830;2022-11-21T05:31:12;2.60;99.90
21635;DHT22;10979;48.306;9.830;2022-11-21T05:33:38;2.60;99.90
21635;DHT22;10979;48.306;9.830;2022-11-21T05:36:04;2.70;99.90
21635;DHT22;10979;48.306;9.830;2022-11-21T05:38:29;2.70;99.90
21635;DHT22;10979;48.306;9.830;2022-11-21T05:40:55;2.60;99.90
21635;DHT22;10979;48.306;9.830;2022-11-21T05:43:20;2.70;99.90
21635;DHT22;10979;48.306;9.830;2022-11-21T05:46:04;2.60;99.90
21635;DHT22;10979;48.306;9.830;2022-11-21T05:48:30;2.50;99.90
21635;DHT22;10979;48.306;9.830;2022-11-21T05:50:55;2.50;99.90
21635;DHT22;10979;48.306;9.830;2022-11-21T05:53:21;2.30;99.90
21635;DHT22;10979;48.306;9.830;2022-11-21T05:55:47;2.20;99.90
21635;DHT22;10979;48.306;9.830;2022-11-21T05:58:12;2.10;99.90
21635;DHT22;10979;48.306;9.830;2022-11-21T06:00:38;2.10;99.90
21635;DHT22;10979;48.306;9.830;2022-11-21T06:03:05;2.20;99.90
21635;DHT22;10979;48.306;9.830;2022-11-21T06:05:48;2.30;99.90
21635;DHT22;10979;48.306;9.830;2022-11-21T06:08:14;2.50;99.90
21635;DHT22;10979;48.306;9.830;2022-11-21T06:10:40;2.50;99.90
21635;DHT22;10979;48.306;9.830;2022-11-21T06:13:05;2.60;99.90
21635;DHT22;10979;48.306;9.830;2022-11-21T06:16:09;2.60;99.90
21635;DHT22;10979;48.306;9.830;2022-11-21T06:18:34;2.60;99.90
21635;DHT22;10979;48.306;9.830;2022-11-21T06:23:27;2.60;99.90
21635;DHT22;10979;48.306;9.830;2022-11-21T06:25:57;2.70;99.90
21635;DHT22;10979;48.306;9.830;2022-11-21T06:28:23;2.60;99.90
21635;DHT22;10979;48.306;9.830;2022-11-21T06:30:49;2.70;99.90
21635;DHT22;10979;48.306;9.830;2022-11-21T06:33:16;2.60;99.90
21635;DHT22;10979;48.306;9.830;2022-11-21T06:35:42;2.60;99.90
21635;DHT22;10979;48.306;9.830;2022-11-21T06:38:08;2.30;99.90
21635;DHT22;10979;48.306;9.830;2022-11-21T06:40:33;2.20;99.90
21635;DHT22;10979;48.306;9.830;2022-11-21T06:42:59;2.00;99.90
21635;DHT22;10979;48.306;9.830;2022-11-21T06:45:25;1.90;99.90
21635;DHT22;10979;48.306;9.830;2022-11-21T06:47:51;1.90;99.90
21635;DHT22;10979;48.306;9.830;2022-11-21T06:50:16;1.90;99.90
21635;DHT22;10979;48.306;9.830;2022-11-21T06:52:42;1.90;99.90
21635;DHT22;10979;48.306;9.830;2022-11-21T06:55:09;1.90;99.90
21635;DHT22;10979;48.306;9.830;2022-11-21T06:57:35;1.90;99.90
21635;DHT22;10979;48.306;9.830;2022-11-21T07:00:00;1.90;99.90
21635;DHT22;10979;48.306;9.830;2022-11-21T07:02:26;1.90;99.90
21635;DHT22;10979;48.306;9.830;2022-11-21T07:04:52;1.90;99.90
21635;DHT22;10979;48.306;9.830;2022-11-21T07:07:18;1.80;99.90
21635;DHT22;10979;48.306;9.830;2022-11-21T07:09:43;1.80;99.90
21635;DHT22;10979;48.306;9.830;2022-11-21T07:12:09;1.80;99.90
21635;DHT22;10979;48.306;9.830;2022-11-21T07:14:54;1.90;99.90
21635;DHT22;10979;48.306;9.830;2022-11-21T07:17:19;1.90;99.90
21635;DHT22;10979;48.306;9.830;2022-11-21T07:19:45;2.00;99.90
21635;DHT22;10979;48.306;9.830;2022-11-21T07:22:10;2.20;99.90
21635;DHT22;10979;48.306;9.830;2022-11-21T07:24:36;2.70;99.90
21635;DHT22;10979;48.306;9.830;2022-11-21T07:27:01;3.80;99.90
21635;DHT22;10979;48.306;9.830;2022-11-21T07:29:27;4.50;99.90
21635;DHT22;10979;48.306;9.830;2022-11-21T07:31:53;4.90;99.90
21635;DHT22;10979;48.306;9.830;2022-11-21T07:34:19;4.90;99.90
21635;DHT22;10979;48.306;9.830;2022-11-21T07:36:44;4.90;99.90
21635;DHT22;10979;48.306;9.830;2022-11-21T07:39:10;5.40;99.90
21635;DHT22;10979;48.306;9.830;2022-11-21T07:41:36;4.30;99.90
21635;DHT22;10979;48.306;9.830;2022-11-21T07:44:01;5.90;99.90
21635;DHT22;10979;48.306;9.830;2022-11-21T07:46:27;5.40;99.90
21635;DHT22;10979;48.306;9.830;2022-11-21T07:48:52;5.10;99.90
21635;DHT22;10979;48.306;9.830;2022-11-21T07:51:18;3.80;99.90
21635;DHT22;10979;48.306;9.830;2022-11-21T07:53:43;3.30;99.90
21635;DHT22;10979;48.306;9.830;2022-11-21T07:56:09;3.10;99.90
21635;DHT22;10979;48.306;9.830;2022-11-21T07:58:35;3.10;99.90
21635;DHT22;10979;48.306;9.830;2022-11-21T08:01:05;3.90;99.90
21635;DHT22;10979;48.306;9.830;2022-11-21T08:03:32;4.30;99.90
21635;DHT22;10979;48.306;9.830;2022-11-21T08:06:01;5.50;99.90
21635;DHT22;10979;48.306;9.830;2022-11-21T08:08:30;4.40;99.90
21635;DHT22;10979;48.306;9.830;2022-11-21T08:10:56;3.80;99.90
21635;DHT22;10979;48.306;9.830;2022-11-21T08:13:22;3.70;99.90
21635;DHT22;10979;48.306;9.830;2022-11-21T08:15:47;5.80;99.90
21635;DHT22;10979;48.306;9.830;2022-11-21T08:18:15;8.40;99.90
21635;DHT22;10979;48.306;9.830;2022-11-21T08:20:43;7.70;99.90
21635;DHT22;10979;48.306;9.830;2022-11-21T08:23:09;7.40;99.90
21635;DHT22;10979;48.306;9.830;2022-11-21T08:25:39;7.20;99.90
21635;DHT22;10979;48.306;9.830;2022-11-21T08:28:05;7.70;99.90
21635;DHT22;10979;48.306;9.830;2022-11-21T08:30:32;7.40;99.90
21635;DHT22;10979;48.306;9.830;2022-11-21T08:32:58;6.10;99.90
21635;DHT22;10979;48.306;9.830;2022-11-21T08:35:24;5.40;99.90
21635;DHT22;10979;48.306;9.830;2022-11-21T08:37:58;7.30;99.90
21635;DHT22;10979;48.306;9.830;2022-11-21T08:40:25;6.10;99.90
21635;DHT22;10979;48.306;9.830;2022-11-21T08:43:05;5.50;99.90
21635;DHT22;10979;48.306;9.830;2022-11-21T08:45:33;7.60;99.90
21635;DHT22;10979;48.306;9.830;2022-11-21T08:47:59;5.80;99.90
21635;DHT22;10979;48.306;9.830;2022-11-21T08:50:25;5.00;99.90
21635;DHT22;10979;48.306;9.830;2022-11-21T08:52:52;4.60;99.90
21635;DHT22;10979;48.306;9.830;2022-11-21T08:55:23;6.70;99.90
21635;DHT22;10979;48.306;9.830;2022-11-21T08:57:48;5.80;99.90
21635;DHT22;10979;48.306;9.830;2022-11-21T09:00:14;5.50;99.90
21635;DHT22;10979;48.306;9.830;2022-11-21T09:02:40;5.60;99.90
21635;DHT22;10979;48.306;9.830;2022-11-21T09:05:06;5.60;99.90
21635;DHT22;10979;48.306;9.830;2022-11-21T09:07:31;5.70;99.90
21635;DHT22;10979;48.306;9.830;2022-11-21T09:09:57;6.00;99.90
21635;DHT22;10979;48.306;9.830;2022-11-21T09:12:23;6.10;99.90
21635;DHT22;10979;48.306;9.830;2022-11-21T09:14:48;6.20;99.90
21635;DHT22;10979;48.306;9.830;2022-11-21T09:17:32;6.10;99.90
21635;DHT22;10979;48.306;9.830;2022-11-21T09:20:16;6.10;99.90
21635;DHT22;10979;48.306;9.830;2022-11-21T09:22:42;6.20;99.90
21635;DHT22;10979;48.306;9.830;2022-11-21T09:25:07;6.20;99.90
21635;DHT22;10979;48.306;9.830;2022-11-21T09:27:33;6.20;99.90
21635;DHT22;10979;48.306;9.830;2022-11-21T09:29:58;6.70;99.90
21635;DHT22;10979;48.306;9.830;2022-11-21T09:32:24;6.90;99.90
21635;DHT22;10979;48.306;9.830;2022-11-21T09:34:50;6.20;99.90
21635;DHT22;10979;48.306;9.830;2022-11-21T09:37:15;5.90;99.90
21635;DHT22;10979;48.306;9.830;2022-11-21T09:39:41;6.20;99.90
21635;DHT22;10979;48.306;9.830;2022-11-21T09:45:07;6.60;99.90
21635;DHT22;10979;48.306;9.830;2022-11-21T09:47:43;6.40;99.90
21635;DHT22;10979;48.306;9.830;2022-11-21T09:57:54;6.20;99.90
21635;DHT22;10979;48.306;9.830;2022-11-21T10:00:22;6.00;99.90
21635;DHT22;10979;48.306;9.830;2022-11-21T10:02:49;5.90;99.90
21635;DHT22;10979;48.306;9.830;2022-11-21T10:05:16;5.80;99.90
21635;DHT22;10979;48.306;9.830;2022-11-21T10:07:44;5.70;99.90
21635;DHT22;10979;48.306;9.830;2022-11-21T10:10:41;5.80;99.90
21635;DHT22;10979;48.306;9.830;2022-11-21T10:18:45;5.70;99.90
21635;DHT22;10979;48.306;9.830;2022-11-21T10:24:01;6.40;99.90
21635;DHT22;10979;48.306;9.830;2022-11-21T10:26:51;6.40;99.90
21635;DHT22;10979;48.306;9.830;2022-11-21T10:29:26;6.30;99.90
21635;DHT22;10979;48.306;9.830;2022-11-21T10:31:55;6.10;99.90
21635;DHT22;10979;48.306;9.830;2022-11-21T10:34:24;6.10;99.90
21635;DHT22;10979;48.306;9.830;2022-11-21T10:36:55;6.20;99.90
21635;DHT22;10979;48.306;9.830;2022-11-21T10:39:33;6.60;99.90
21635;DHT22;10979;48.306;9.830;2022-11-21T10:42:04;6.90;99.90
21635;DHT22;10979;48.306;9.830;2022-11-21T10:44:44;7.10;99.90
21635;DHT22;10979;48.306;9.830;2022-11-21T10:47:33;7.20;99.90
21635;DHT22;10979;48.306;9.830;2022-11-21T10:50:11;7.20;99.90
21635;DHT22;10979;48.306;9.830;2022-11-21T10:52:44;7.10;99.90
21635;DHT22;10979;48.306;9.830;2022-11-21T10:55:12;7.20;99.90
21635;DHT22;10979;48.306;9.830;2022-11-21T10:57:46;7.20;99.90
21635;DHT22;10979;48.306;9.830;2022-11-21T11:02:39;7.10;99.90
21635;DHT22;10979;48.306;9.830;2022-11-21T11:05:19;6.90;99.90
21635;DHT22;10979;48.306;9.830;2022-11-21T11:08:09;6.90;99.90
21635;DHT22;10979;48.306;9.830;2022-11-21T11:10:59;6.70;99.90
21635;DHT22;10979;48.306;9.830;2022-11-21T11:13:25;6.50;99.90
21635;DHT22;10979;48.306;9.830;2022-11-21T11:15:59;6.90;99.90
21635;DHT22;10979;48.306;9.830;2022-11-21T11:18:25;7.00;99.90
21635;DHT22;10979;48.306;9.830;2022-11-21T11:20:51;7.10;99.90
21635;DHT22;10979;48.306;9.830;2022-11-21T11:25:57;7.70;99.90
21635;DHT22;10979;48.306;9.830;2022-11-21T11:28:25;8.10;99.90
21635;DHT22;10979;48.306;9.830;2022-11-21T11:30:52;8.20;99.90
21635;DHT22;10979;48.306;9.830;2022-11-21T11:38:54;7.50;99.90
21635;DHT22;10979;48.306;9.830;2022-11-21T11:44:45;7.90;99.90
21635;DHT22;10979;48.306;9.830;2022-11-21T11:47:37;8.40;99.90
21635;DHT22;10979;48.306;9.830;2022-11-21T11:50:14;8.30;99.90
21635;DHT22;10979;48.306;9.830;2022-11-21T11:53:33;8.20;99.90
21635;DHT22;10979;48.306;9.830;2022-11-21T11:55:56;8.40;99.90
21635;DHT22;10979;48.306;9.830;2022-11-21T11:58:42;8.40;99.90
21635;DHT22;10979;48.306;9.830;2022-11-21T12:01:23;8.50;99.90
21635;DHT22;10979;48.306;9.830;2022-11-21T12:04:11;8.40;99.90
21635;DHT22;10979;48.306;9.830;2022-11-21T12:06:49;8.40;99.90
21635;DHT22;10979;48.306;9.830;2022-11-21T12:12:15;8.40;99.90
21635;DHT22;10979;48.306;9.830;2022-11-21T12:15:02;8.40;99.90
21635;DHT22;10979;48.306;9.830;2022-11-21T12:18:12;8.50;99.90
21635;DHT22;10979;48.306;9.830;2022-11-21T12:23:31;7.90;99.90
21635;DHT22;10979;48.306;9.830;2022-11-21T12:31:23;8.20;99.90
21635;DHT22;10979;48.306;9.830;2022-11-21T12:34:16;8.50;99.90
21635;DHT22;10979;48.306;9.830;2022-11-21T12:37:16;8.50;99.90
21635;DHT22;10979;48.306;9.830;2022-11-21T12:39:58;9.10;99.90
21635;DHT22;10979;48.306;9.830;2022-11-21T12:51:31;8.60;99.90
21635;DHT22;10979;48.306;9.830;2022-11-21T12:57:09;8.60;99.90
21635;DHT22;10979;48.306;9.830;2022-11-21T13:04:55;8.50;99.90
21635;DHT22;10979;48.306;9.830;2022-11-21T13:07:23;8.50;99.90
21635;DHT22;10979;48.306;9.830;2022-11-21T13:09:52;8.50;99.90
21635;DHT22;10979;48.306;9.830;2022-11-21T13:14:52;8.10;99.90
21635;DHT22;10979;48.306;9.830;2022-11-21T13:25:02;7.90;99.90
21635;DHT22;10979;48.306;9.830;2022-11-21T13:27:31;7.90;99.90
21635;DHT22;10979;48.306;9.830;2022-11-21T13:45:49;7.50;99.90
21635;DHT22;10979;48.306;9.830;2022-11-21T13:56:35;7.30;99.90
21635;DHT22;10979;48.306;9.830;2022-11-21T14:07:47;6.90;99.90
21635;DHT22;10979;48.306;9.830;2022-11-21T14:10:30;6.60;99.90
21635;DHT22;10979;48.306;9.830;2022-11-21T14:12:56;6.50;99.90
21635;DHT22;10979;48.306;9.830;2022-11-21T14:18:05;6.30;99.90
21635;DHT22;10979;48.306;9.830;2022-11-21T14:23:11;6.40;99.90
21635;DHT22;10979;48.306;9.830;2022-11-21T14:28:08;6.40;99.90
21635;DHT22;10979;48.306;9.830;2022-11-21T14:30:36;6.40;99.90
21635;DHT22;10979;48.306;9.830;2022-11-21T14:33:22;6.40;99.90
21635;DHT22;10979;48.306;9.830;2022-11-21T14:35:51;6.30;99.90
21635;DHT22;10979;48.306;9.830;2022-11-21T14:38:19;6.10;99.90
21635;DHT22;10979;48.306;9.830;2022-11-21T14:40:45;6.00;99.90
21635;DHT22;10979;48.306;9.830;2022-11-21T14:43:41;5.80;99.90
21635;DHT22;10979;48.306;9.830;2022-11-21T14:46:19;5.80;99.90
21635;DHT22;10979;48.306;9.830;2022-11-21T14:48:45;5.60;99.90
21635;DHT22;10979;48.306;9.830;2022-11-21T14:51:15;5.60;99.90
21635;DHT22;10979;48.306;9.830;2022-11-21T14:53:42;5.60;99.90
21635;DHT22;10979;48.306;9.830;2022-11-21T14:56:22;5.40;99.90
21635;DHT22;10979;48.306;9.830;2022-11-21T14:58:50;5.20;99.90
21635;DHT22;10979;48.306;9.830;2022-11-21T15:01:22;5.00;99.90
21635;DHT22;10979;48.306;9.830;2022-11-21T15:03:55;4.90;99.90
21635;DHT22;10979;48.306;9.830;2022-11-21T15:06:21;4.70;99.90
21635;DHT22;10979;48.306;9.830;2022-11-21T15:08:48;4.50;99.90
21635;DHT22;10979;48.306;9.830;2022-11-21T15:11:16;4.50;99.90
21635;DHT22;10979;48.306;9.830;2022-11-21T15:13:43;4.40;99.90
21635;DHT22;10979;48.306;9.830;2022-11-21T15:16:09;4.20;99.90
21635;DHT22;10979;48.306;9.830;2022-11-21T15:18:35;4.10;99.90
21635;DHT22;10979;48.306;9.830;2022-11-21T15:21:04;4.00;99.90
21635;DHT22;10979;48.306;9.830;2022-11-21T15:23:31;4.00;99.90
21635;DHT22;10979;48.306;9.830;2022-11-21T15:25:58;4.30;99.90
21635;DHT22;10979;48.306;9.830;2022-11-21T15:28:24;4.10;99.90
21635;DHT22;10979;48.306;9.830;2022-11-21T15:31:18;4.40;99.90
21635;DHT22;10979;48.306;9.830;2022-11-21T15:33:59;4.80;99.90
21635;DHT22;10979;48.306;9.830;2022-11-21T15:36:25;4.90;99.90
21635;DHT22;10979;48.306;9.830;2022-11-21T15:38:59;4.90;99.90
21635;DHT22;10979;48.306;9.830;2022-11-21T15:41:32;5.10;99.90
21635;DHT22;10979;48.306;9.830;2022-11-21T15:46:31;5.20;99.90
21635;DHT22;10979;48.306;9.830;2022-11-21T15:49:09;4.90;99.90
21635;DHT22;10979;48.306;9.830;2022-11-21T15:51:45;4.80;99.90
21635;DHT22;10979;48.306;9.830;2022-11-21T15:54:14;4.70;99.90
21635;DHT22;10979;48.306;9.830;2022-11-21T15:56:40;4.80;99.90
21635;DHT22;10979;48.306;9.830;2022-11-21T15:59:06;4.90;99.90
21635;DHT22;10979;48.306;9.830;2022-11-21T16:01:33;5.00;99.90
21635;DHT22;10979;48.306;9.830;2022-11-21T16:04:01;4.70;99.90
21635;DHT22;10979;48.306;9.830;2022-11-21T16:06:27;4.70;99.90
21635;DHT22;10979;48.306;9.830;2022-11-21T16:12:15;5.00;99.90
21635;DHT22;10979;48.306;9.830;2022-11-21T16:14:40;4.60;99.90
21635;DHT22;10979;48.306;9.830;2022-11-21T16:17:06;4.70;99.90
21635;DHT22;10979;48.306;9.830;2022-11-21T16:19:31;4.70;99.90
21635;DHT22;10979;48.306;9.830;2022-11-21T16:21:57;4.60;99.90
21635;DHT22;10979;48.306;9.830;2022-11-21T16:24:22;4.70;99.90
21635;DHT22;10979;48.306;9.830;2022-11-21T16:26:48;4.70;99.90
21635;DHT22;10979;48.306;9.830;2022-11-21T16:29:17;4.60;99.90
21635;DHT22;10979;48.306;9.830;2022-11-21T16:31:43;4.50;99.90
21635;DHT22;10979;48.306;9.830;2022-11-21T16:34:08;4.50;99.90
21635;DHT22;10979;48.306;9.830;2022-11-21T16:36:34;4.50;99.90
21635;DHT22;10979;48.306;9.830;2022-11-21T16:38:59;4.50;99.90
21635;DHT22;10979;48.306;9.830;2022-11-21T16:41:28;4.40;99.90
21635;DHT22;10979;48.306;9.830;2022-11-21T16:43:54;4.30;99.90
21635;DHT22;10979;48.306;9.830;2022-11-21T16:46:22;4.30;99.90
21635;DHT22;10979;48.306;9.830;2022-11-21T16:48:48;4.30;99.90
21635;DHT22;10979;48.306;9.830;2022-11-21T16:51:21;4.30;99.90
21635;DHT22;10979;48.306;9.830;2022-11-21T16:53:48;4.20;99.90
21635;DHT22;10979;48.306;9.830;2022-11-21T16:56:14;4.20;99.90
21635;DHT22;10979;48.306;9.830;2022-11-21T16:58:41;4.00;99.90
21635;DHT22;10979;48.306;9.830;2022-11-21T17:01:15;4.10;99.90
21635;DHT22;10979;48.306;9.830;2022-11-21T17:03:42;4.10;99.90
21635;DHT22;10979;48.306;9.830;2022-11-21T17:06:09;4.00;99.90
21635;DHT22;10979;48.306;9.830;2022-11-21T17:08:35;4.00;99.90
21635;DHT22;10979;48.306;9.830;2022-11-21T17:13:36;4.00;99.90
21635;DHT22;10979;48.306;9.830;2022-11-21T17:16:06;3.90;99.90
21635;DHT22;10979;48.306;9.830;2022-11-21T17:18:32;3.80;99.90
21635;DHT22;10979;48.306;9.830;2022-11-21T17:20:57;3.80;99.90
21635;DHT22;10979;48.306;9.830;2022-11-21T17:23:23;3.90;99.90
21635;DHT22;10979;48.306;9.830;2022-11-21T17:25:49;3.80;99.90
21635;DHT22;10979;48.306;9.830;2022-11-21T17:28:14;3.70;99.90
21635;DHT22;10979;48.306;9.830;2022-11-21T17:30:40;3.70;99.90
21635;DHT22;10979;48.306;9.830;2022-11-21T17:33:09;3.70;99.90
21635;DHT22;10979;48.306;9.830;2022-11-21T17:35:34;3.50;99.90
21635;DHT22;10979;48.306;9.830;2022-11-21T17:38:00;3.40;99.90
21635;DHT22;10979;48.306;9.830;2022-11-21T17:40:26;3.40;99.90
21635;DHT22;10979;48.306;9.830;2022-11-21T17:42:51;3.20;99.90
21635;DHT22;10979;48.306;9.830;2022-11-21T17:45:17;3.00;99.90
21635;DHT22;10979;48.306;9.830;2022-11-21T17:47:42;2.70;99.90
21635;DHT22;10979;48.306;9.830;2022-11-21T17:50:08;2.50;99.90
21635;DHT22;10979;48.306;9.830;2022-11-21T17:52:34;2.40;99.90
21635;DHT22;10979;48.306;9.830;2022-11-21T17:54:59;2.30;99.90
21635;DHT22;10979;48.306;9.830;2022-11-21T17:57:25;2.10;99.90
21635;DHT22;10979;48.306;9.830;2022-11-21T17:59:51;2.00;99.90